Terminal Aerodrome Forecast
Issued by NWS Wilmington, NC

Home | Current Version | Previous Version | Text Only | Print | Product List | Glossary On
Versions: 1 2 3 4 5 6 7 8 9 10 11 12 13 14 15
000
FTUS42 KILM 010900 AAA
TAFFLO
TAF AMD
KFLO 010925Z 0109/0206 08006KT 6SM BR VCSH BKN006
      TEMPO 0109/0111 4SM BR BKN020
     FM011400 08005KT P6SM VCSH BKN035=

USA.gov is the U.S. government's official web portal to all federal, state and local government web resources and services.